Time;durP1;ratioP1;P1;durP2;ratioP2;P2;SDS_P1;SDS_P2;PMS_P1;PMS_P2;Temp;Humidity;BMP_temperature;BMP_pressure;BME280_temperature;BME280_humidity;BME280_pressure;Samples;Min_cycle;Max_cycle;Signal;HPM_P1;HPM_P2
2022/04/25 00:00:38;;;;;;;6.87;3.23;;;;;;;;;;5051489;28;20194;-86
2022/04/25 00:03:07;;;;;;;3.20;2.20;;;;;;;;;;5051448;28;20312;-85
2022/04/25 00:05:34;;;;;;;3.43;2.27;;;;;;;;;;5050914;28;20243;-85
2022/04/25 00:08:02;;;;;;;6.70;2.80;;;;;;;;;;5052252;28;20734;-85
2022/04/25 00:10:32;;;;;;;8.90;3.03;;;;;;;;;;5055753;28;20202;-85
2022/04/25 00:13:00;;;;;;;6.10;2.70;;;;;;;;;;5055680;28;20194;-85
2022/04/25 00:15:28;;;;;;;3.03;2.73;;;;;;;;;;5055459;28;20205;-85
2022/04/25 00:17:56;;;;;;;4.13;2.63;;;;;;;;;;5055433;28;20203;-85
2022/04/25 00:20:24;;;;;;;6.17;2.10;;;;;;;;;;5055444;28;20194;-85
2022/04/25 00:23:07;;;;;;;4.93;2.50;;;;;;;;;;5055168;28;20221;-85
2022/04/25 00:25:40;;;;;;;6.57;3.00;;;;;;;;;;5055447;28;20559;-85
2022/04/25 00:28:11;;;;;;;6.07;2.50;;;;;;;;;;5055241;28;20193;-85
2022/04/25 00:30:38;;;;;;;3.70;2.20;;;;;;;;;;5055019;28;20204;-85
2022/04/25 00:35:42;;;;;;;8.17;3.10;;;;;;;;;;5073079;22;20237;-92
2022/04/25 00:38:09;;;;;;;4.77;2.97;;;;;;;;;;5056227;28;20204;-92
2022/04/25 00:40:37;;;;;;;9.33;2.87;;;;;;;;;;5056073;28;20672;-91
2022/04/25 00:43:04;;;;;;;6.00;3.60;;;;;;;;;;5056092;28;20312;-91
2022/04/25 00:45:33;;;;;;;9.37;4.23;;;;;;;;;;5056183;28;20201;-92
2022/04/25 00:48:01;;;;;;;4.87;2.20;;;;;;;;;;5056057;28;20289;-91
2022/04/25 00:50:29;;;;;;;5.90;2.87;;;;;;;;;;5056109;28;20205;-91
2022/04/25 00:52:59;;;;;;;3.90;2.77;;;;;;;;;;5055771;28;20204;-91
2022/04/25 00:55:26;;;;;;;7.17;2.93;;;;;;;;;;5056373;28;20194;-91
2022/04/25 00:57:54;;;;;;;6.73;2.80;;;;;;;;;;5055737;28;20197;-91
2022/04/25 01:00:28;;;;;;;6.00;2.80;;;;;;;;;;5055983;28;20277;-91
2022/04/25 01:02:58;;;;;;;6.70;2.60;;;;;;;;;;5055488;28;20226;-91
2022/04/25 01:05:29;;;;;;;5.77;2.70;;;;;;;;;;5055584;28;20280;-91
2022/04/25 01:08:01;;;;;;;7.60;2.37;;;;;;;;;;5055789;28;20250;-92
2022/04/25 01:10:29;;;;;;;7.43;2.50;;;;;;;;;;5055666;28;20201;-91
2022/04/25 01:12:59;;;;;;;3.70;2.70;;;;;;;;;;5055419;28;20660;-91
2022/04/25 01:15:31;;;;;;;5.97;2.60;;;;;;;;;;5055565;28;20197;-91
2022/04/25 01:18:02;;;;;;;5.67;2.60;;;;;;;;;;5055542;28;20216;-91
2022/04/25 01:20:29;;;;;;;5.77;3.20;;;;;;;;;;5054304;28;20247;-91
2022/04/25 01:28:52;;;;;;;9.73;3.50;;;;;;;;;;5055409;28;20187;-91
2022/04/25 01:31:22;;;;;;;5.23;4.00;;;;;;;;;;5055147;28;20196;-91
2022/04/25 01:33:55;;;;;;;6.53;3.57;;;;;;;;;;5054818;28;20229;-91
2022/04/25 01:36:26;;;;;;;9.23;4.93;;;;;;;;;;5055305;28;20198;-91
2022/04/25 01:38:55;;;;;;;4.63;3.60;;;;;;;;;;5055130;28;20273;-94
2022/04/25 01:41:25;;;;;;;5.73;2.93;;;;;;;;;;5055055;28;20242;-94
2022/04/25 01:43:55;;;;;;;8.60;3.63;;;;;;;;;;5054860;28;20242;-95
2022/04/25 01:46:22;;;;;;;8.20;3.53;;;;;;;;;;5055043;28;20280;-94
2022/04/25 01:48:53;;;;;;;5.53;2.67;;;;;;;;;;5054966;28;20316;-94
2022/04/25 01:51:23;;;;;;;6.93;2.70;;;;;;;;;;5055252;28;20681;-93
2022/04/25 01:54:04;;;;;;;10.27;2.67;;;;;;;;;;5054719;28;20724;-93
2022/04/25 01:56:32;;;;;;;4.57;2.40;;;;;;;;;;5054506;28;20634;-93
2022/04/25 01:59:02;;;;;;;6.50;2.67;;;;;;;;;;5053960;28;20200;-93
2022/04/25 02:01:29;;;;;;;5.50;3.20;;;;;;;;;;5054627;28;20281;-94
2022/04/25 02:03:56;;;;;;;7.47;3.00;;;;;;;;;;5054860;28;20223;-94
2022/04/25 02:06:24;;;;;;;7.27;3.97;;;;;;;;;;5054299;28;20311;-94
2022/04/25 02:08:52;;;;;;;6.43;2.70;;;;;;;;;;5054400;28;20217;-94
2022/04/25 02:11:31;;;;;;;5.73;3.20;;;;;;;;;;5054338;28;20283;-93
2022/04/25 02:13:58;;;;;;;5.23;3.07;;;;;;;;;;5054241;28;20204;-94
2022/04/25 02:16:26;;;;;;;3.90;2.70;;;;;;;;;;5054194;28;20770;-94
2022/04/25 02:18:56;;;;;;;11.03;3.80;;;;;;;;;;5054711;28;20201;-94
2022/04/25 02:21:30;;;;;;;6.33;2.93;;;;;;;;;;5054269;28;20205;-94
2022/04/25 02:24:21;;;;;;;6.60;2.97;;;;;;;;;;5054359;28;20224;-94
2022/04/25 02:26:56;;;;;;;7.00;2.77;;;;;;;;;;5053620;28;20232;-94
2022/04/25 02:29:25;;;;;;;9.67;3.60;;;;;;;;;;5054025;28;20230;-94
2022/04/25 02:31:55;;;;;;;3.47;3.00;;;;;;;;;;5053737;28;20196;-94
2022/04/25 02:34:23;;;;;;;4.60;2.67;;;;;;;;;;5058909;28;20320;-94
2022/04/25 02:36:50;;;;;;;5.57;3.10;;;;;;;;;;5073666;28;20231;-94
2022/04/25 02:39:17;;;;;;;3.90;3.40;;;;;;;;;;5073592;28;20237;-93
2022/04/25 02:41:44;;;;;;;4.20;3.33;;;;;;;;;;5074150;28;20253;-94
2022/04/25 02:44:13;;;;;;;6.00;3.37;;;;;;;;;;5073877;28;20699;-94
2022/04/25 02:46:40;;;;;;;9.03;3.30;;;;;;;;;;5073735;28;20197;-95
2022/04/25 02:49:08;;;;;;;6.43;3.17;;;;;;;;;;5073656;28;20280;-94
2022/04/25 02:51:35;;;;;;;4.57;3.23;;;;;;;;;;5073692;28;20294;-94
2022/04/25 02:54:11;;;;;;;6.33;2.93;;;;;;;;;;5073484;28;20193;-94
2022/04/25 02:56:48;;;;;;;5.87;3.70;;;;;;;;;;5073340;28;20730;-94
2022/04/25 02:59:16;;;;;;;8.43;3.20;;;;;;;;;;5073449;28;20197;-94
2022/04/25 03:01:47;;;;;;;3.27;2.70;;;;;;;;;;5073402;28;20626;-94
2022/04/25 03:04:14;;;;;;;3.90;2.50;;;;;;;;;;5073040;28;20244;-95
2022/04/25 03:06:44;;;;;;;6.00;2.73;;;;;;;;;;5073544;28;20212;-94
2022/04/25 03:09:12;;;;;;;9.07;3.77;;;;;;;;;;5073885;28;20260;-95
2022/04/25 03:11:42;;;;;;;9.63;3.00;;;;;;;;;;5073382;28;20662;-94
2022/04/25 03:14:29;;;;;;;3.63;2.60;;;;;;;;;;5073055;28;20243;-95
2022/04/25 03:16:56;;;;;;;4.30;3.43;;;;;;;;;;5073188;28;20204;-93
2022/04/25 03:19:26;;;;;;;5.83;2.80;;;;;;;;;;5073265;28;20279;-95
2022/04/25 03:21:54;;;;;;;5.13;2.97;;;;;;;;;;5073196;28;20284;-94
2022/04/25 03:24:21;;;;;;;7.27;2.83;;;;;;;;;;5073281;28;20763;-95
2022/04/25 03:26:48;;;;;;;4.70;3.00;;;;;;;;;;5073115;28;20276;-94
2022/04/25 03:29:22;;;;;;;3.63;2.70;;;;;;;;;;5073757;28;20573;-94
2022/04/25 03:31:50;;;;;;;5.40;3.10;;;;;;;;;;5073052;28;20226;-94
2022/04/25 03:34:18;;;;;;;5.07;3.60;;;;;;;;;;5072478;28;20316;-95
2022/04/25 03:36:46;;;;;;;5.40;3.50;;;;;;;;;;5073159;28;20574;-95
2022/04/25 03:39:31;;;;;;;3.67;3.17;;;;;;;;;;5073172;28;20260;-94
2022/04/25 03:42:02;;;;;;;8.33;3.57;;;;;;;;;;5072826;28;20220;-94
2022/04/25 03:44:41;;;;;;;7.90;3.47;;;;;;;;;;5072013;28;20700;-94
2022/04/25 03:47:10;;;;;;;5.50;3.60;;;;;;;;;;5072401;28;20661;-94
2022/04/25 03:49:41;;;;;;;4.93;3.37;;;;;;;;;;5073070;28;20239;-94
2022/04/25 03:52:11;;;;;;;7.23;3.70;;;;;;;;;;5072905;28;20280;-94
2022/04/25 03:57:29;;;;;;;6.10;3.07;;;;;;;;;;5073031;28;20234;-95
2022/04/25 04:00:02;;;;;;;4.50;3.33;;;;;;;;;;5072883;28;20240;-94
2022/04/25 04:02:31;;;;;;;7.53;3.57;;;;;;;;;;5072998;28;20189;-93
2022/04/25 04:05:08;;;;;;;5.97;3.43;;;;;;;;;;5073224;28;20304;-94
2022/04/25 04:07:51;;;;;;;4.87;3.87;;;;;;;;;;5072531;28;20287;-94
2022/04/25 04:10:19;;;;;;;7.30;3.33;;;;;;;;;;5072328;28;20217;-93
2022/04/25 04:12:49;;;;;;;3.37;3.07;;;;;;;;;;5072688;28;20226;-94
2022/04/25 04:15:25;;;;;;;5.87;3.20;;;;;;;;;;5072341;28;20207;-94
2022/04/25 04:17:54;;;;;;;8.03;5.47;;;;;;;;;;5072606;28;20207;-94
2022/04/25 04:20:37;;;;;;;6.73;6.00;;;;;;;;;;5072652;28;20227;-94
2022/04/25 04:23:05;;;;;;;7.13;5.53;;;;;;;;;;5072438;28;20551;-94
2022/04/25 04:25:33;;;;;;;7.30;4.40;;;;;;;;;;5072069;28;20195;-94
2022/04/25 04:28:06;;;;;;;6.87;4.70;;;;;;;;;;5072339;28;20202;-94
2022/04/25 04:30:34;;;;;;;4.63;3.80;;;;;;;;;;5073074;28;20552;-94
2022/04/25 04:33:03;;;;;;;5.27;3.50;;;;;;;;;;5072641;28;20234;-94
2022/04/25 04:38:14;;;;;;;4.97;3.67;;;;;;;;;;5072926;28;20261;-94
2022/04/25 04:40:42;;;;;;;9.67;3.50;;;;;;;;;;5072338;28;20209;-94
2022/04/25 04:43:09;;;;;;;3.67;3.13;;;;;;;;;;5072889;28;20198;-93
2022/04/25 04:45:36;;;;;;;5.93;2.87;;;;;;;;;;5072351;28;20223;-94
2022/04/25 04:48:05;;;;;;;3.87;2.90;;;;;;;;;;5072701;28;20211;-94
2022/04/25 04:50:33;;;;;;;7.10;3.73;;;;;;;;;;5072429;28;20220;-94
2022/04/25 04:53:03;;;;;;;3.33;3.03;;;;;;;;;;5072476;28;20217;-93
2022/04/25 04:55:36;;;;;;;4.90;3.20;;;;;;;;;;5074948;28;20284;-94
2022/04/25 04:58:03;;;;;;;4.20;3.27;;;;;;;;;;5076246;28;20198;-94
2022/04/25 05:00:33;;;;;;;5.37;3.20;;;;;;;;;;5076083;28;20193;-94
2022/04/25 05:03:06;;;;;;;7.40;2.83;;;;;;;;;;5076015;28;20242;-94
2022/04/25 05:05:33;;;;;;;3.30;2.97;;;;;;;;;;5075654;28;20658;-95
2022/04/25 05:08:02;;;;;;;8.70;7.33;;;;;;;;;;5075803;28;20721;-95
2022/04/25 05:10:32;;;;;;;13.80;5.13;;;;;;;;;;5075909;28;20220;-93
2022/04/25 05:13:03;;;;;;;7.93;6.40;;;;;;;;;;5075521;28;20195;-94
2022/04/25 05:15:31;;;;;;;5.23;4.07;;;;;;;;;;5075796;28;20197;-94
2022/04/25 05:17:59;;;;;;;10.93;4.30;;;;;;;;;;5075498;28;20279;-94
2022/04/25 05:20:28;;;;;;;6.13;4.13;;;;;;;;;;5076985;28;20550;-93
2022/04/25 05:23:01;;;;;;;4.50;4.10;;;;;;;;;;5075817;28;20235;-95
2022/04/25 05:25:29;;;;;;;6.10;4.50;;;;;;;;;;5075275;28;20230;-94
2022/04/25 05:27:57;;;;;;;5.00;4.00;;;;;;;;;;5075081;28;20250;-94
2022/04/25 05:30:25;;;;;;;8.40;3.73;;;;;;;;;;5075526;28;20288;-95
2022/04/25 05:32:54;;;;;;;6.20;3.27;;;;;;;;;;5075348;28;20672;-94
2022/04/25 05:35:27;;;;;;;5.83;3.50;;;;;;;;;;5074761;28;20317;-94
2022/04/25 05:37:55;;;;;;;6.67;3.40;;;;;;;;;;5074858;28;20196;-93
2022/04/25 05:40:23;;;;;;;5.97;3.90;;;;;;;;;;5075069;28;20272;-94
2022/04/25 05:42:54;;;;;;;8.00;6.43;;;;;;;;;;5074797;28;20197;-94
2022/04/25 05:45:25;;;;;;;5.43;4.93;;;;;;;;;;5074794;28;20291;-94
2022/04/25 05:47:54;;;;;;;7.97;5.57;;;;;;;;;;5075054;28;20304;-95
2022/04/25 05:53:07;;;;;;;9.23;4.87;;;;;;;;;;5075387;28;20234;-95
2022/04/25 05:55:43;;;;;;;4.90;4.07;;;;;;;;;;5074657;28;20280;-95
2022/04/25 05:58:17;;;;;;;5.47;3.67;;;;;;;;;;5074614;28;20665;-94
2022/04/25 06:00:44;;;;;;;3.93;3.03;;;;;;;;;;5074762;28;20683;-95
2022/04/25 06:03:12;;;;;;;2.50;2.07;;;;;;;;;;5074610;28;20201;-95
2022/04/25 06:05:42;;;;;;;3.33;2.10;;;;;;;;;;5073461;28;20304;-93
2022/04/25 06:08:20;;;;;;;4.80;2.10;;;;;;;;;;5074433;28;20240;-95
2022/04/25 06:10:47;;;;;;;3.83;2.90;;;;;;;;;;5056924;28;20676;-94
2022/04/25 06:13:33;;;;;;;3.93;2.20;;;;;;;;;;5074321;28;20198;-95
2022/04/25 06:16:05;;;;;;;3.90;2.27;;;;;;;;;;5074241;28;20687;-95
2022/04/25 06:18:32;;;;;;;4.73;2.63;;;;;;;;;;5074411;28;20215;-94
2022/04/25 06:21:02;;;;;;;4.40;2.40;;;;;;;;;;5074375;28;20262;-96
2022/04/25 06:23:34;;;;;;;4.13;2.10;;;;;;;;;;5073990;28;20204;-94
2022/04/25 06:26:04;;;;;;;5.53;2.70;;;;;;;;;;5074183;28;20202;-95
2022/04/25 06:28:34;;;;;;;7.27;2.60;;;;;;;;;;5073898;28;20458;-95
2022/04/25 06:31:02;;;;;;;4.63;2.20;;;;;;;;;;5074012;28;20205;-95
2022/04/25 06:33:32;;;;;;;3.27;2.90;;;;;;;;;;5073993;28;20370;-94
2022/04/25 06:35:59;;;;;;;4.23;2.43;;;;;;;;;;5074800;28;20722;-95
2022/04/25 06:38:30;;;;;;;2.70;2.27;;;;;;;;;;5073796;28;20613;-96
2022/04/25 06:41:01;;;;;;;5.93;2.53;;;;;;;;;;5074225;28;20280;-95
2022/04/25 06:43:36;;;;;;;6.20;2.47;;;;;;;;;;5074012;28;20215;-95
2022/04/25 06:46:03;;;;;;;6.17;3.13;;;;;;;;;;5073317;28;20227;-96
2022/04/25 06:48:34;;;;;;;6.37;3.50;;;;;;;;;;5073615;28;20201;-95
2022/04/25 06:51:01;;;;;;;8.13;2.53;;;;;;;;;;5073707;28;20220;-96
2022/04/25 06:53:29;;;;;;;5.13;2.37;;;;;;;;;;5073598;28;20199;-95
2022/04/25 06:56:03;;;;;;;6.63;3.13;;;;;;;;;;5073512;28;20290;-95
2022/04/25 06:58:34;;;;;;;2.93;2.67;;;;;;;;;;5073501;28;20193;-96
2022/04/25 07:01:10;;;;;;;5.73;2.50;;;;;;;;;;5073427;28;20199;-96
2022/04/25 07:03:38;;;;;;;3.40;2.37;;;;;;;;;;5073622;28;20227;-95
2022/04/25 07:06:05;;;;;;;12.40;2.93;;;;;;;;;;5073825;28;20244;-95
2022/04/25 07:08:42;;;;;;;10.03;2.60;;;;;;;;;;5073519;28;20201;-95
2022/04/25 07:11:11;;;;;;;5.17;1.87;;;;;;;;;;5073281;28;20280;-95
2022/04/25 07:13:41;;;;;;;7.00;2.27;;;;;;;;;;5073237;28;20199;-94
2022/04/25 07:16:10;;;;;;;3.80;2.37;;;;;;;;;;5073381;28;20262;-95
2022/04/25 07:18:43;;;;;;;3.67;2.13;;;;;;;;;;5072817;28;20205;-95
2022/04/25 07:29:44;;;;;;;9.33;2.80;;;;;;;;;;5046771;28;20200;-95
2022/04/25 07:32:14;;;;;;;6.77;3.17;;;;;;;;;;5073246;28;20226;-94
2022/04/25 07:34:43;;;;;;;14.57;3.73;;;;;;;;;;5072749;28;20227;-95
2022/04/25 07:37:14;;;;;;;9.37;2.80;;;;;;;;;;5073298;28;20216;-93
2022/04/25 07:39:45;;;;;;;5.33;2.53;;;;;;;;;;5073361;28;20193;-93
2022/04/25 07:42:18;;;;;;;6.87;2.90;;;;;;;;;;5072958;28;20669;-93
2022/04/25 07:44:48;;;;;;;9.10;2.87;;;;;;;;;;5072613;28;20304;-93
2022/04/25 07:47:15;;;;;;;7.67;2.67;;;;;;;;;;5073296;28;20285;-93
2022/04/25 07:49:50;;;;;;;6.40;2.90;;;;;;;;;;5072665;28;20262;-92
2022/04/25 07:52:17;;;;;;;4.27;2.43;;;;;;;;;;5073100;28;20557;-92
2022/04/25 07:54:45;;;;;;;6.37;3.53;;;;;;;;;;5072977;28;20258;-93
2022/04/25 07:57:14;;;;;;;8.10;3.23;;;;;;;;;;5072832;28;20242;-93
2022/04/25 07:59:41;;;;;;;15.80;6.93;;;;;;;;;;5072832;28;20658;-93
2022/04/25 08:02:18;;;;;;;10.23;3.33;;;;;;;;;;5073038;28;20204;-92
2022/04/25 08:04:46;;;;;;;6.10;3.80;;;;;;;;;;5072767;28;20292;-93
2022/04/25 08:07:13;;;;;;;4.07;2.70;;;;;;;;;;5072587;28;20196;-93
2022/04/25 08:09:41;;;;;;;9.80;3.20;;;;;;;;;;5072927;28;20228;-93
2022/04/25 08:18:04;;;;;;;7.90;2.97;;;;;;;;;;5073251;28;20180;-93
2022/04/25 08:20:34;;;;;;;6.23;2.77;;;;;;;;;;5072617;28;20197;-93
2022/04/25 08:23:03;;;;;;;11.50;3.03;;;;;;;;;;5072536;28;20199;-93
2022/04/25 08:25:31;;;;;;;4.97;2.70;;;;;;;;;;5072288;28;20248;-93
2022/04/25 08:28:04;;;;;;;4.77;2.33;;;;;;;;;;5072372;28;20204;-92
2022/04/25 08:30:32;;;;;;;7.63;3.20;;;;;;;;;;5075510;28;20296;-92
2022/04/25 08:33:07;;;;;;;6.23;3.03;;;;;;;;;;5076407;28;20201;-95
2022/04/25 08:35:34;;;;;;;5.47;3.13;;;;;;;;;;5076243;28;20239;-95
2022/04/25 08:38:02;;;;;;;7.33;2.80;;;;;;;;;;5076152;28;20730;-95
2022/04/25 08:40:29;;;;;;;8.83;3.17;;;;;;;;;;5076579;28;20260;-94
2022/04/25 08:42:58;;;;;;;7.30;3.00;;;;;;;;;;5076314;28;20284;-95
2022/04/25 08:45:28;;;;;;;4.33;2.67;;;;;;;;;;5075775;28;20304;-94
2022/04/25 08:48:24;;;;;;;9.37;3.27;;;;;;;;;;5076244;28;20575;-94
2022/04/25 08:50:52;;;;;;;7.10;3.10;;;;;;;;;;5075710;28;20634;-95
2022/04/25 08:53:19;;;;;;;5.87;2.30;;;;;;;;;;5075949;28;20201;-94
2022/04/25 08:55:47;;;;;;;6.30;3.10;;;;;;;;;;5075711;28;20258;-94
2022/04/25 08:58:15;;;;;;;6.63;3.40;;;;;;;;;;5075537;28;20199;-94
2022/04/25 09:00:49;;;;;;;12.83;3.70;;;;;;;;;;5075704;28;20283;-94
2022/04/25 09:03:17;;;;;;;10.37;3.23;;;;;;;;;;5075657;28;20282;-94
2022/04/25 09:05:44;;;;;;;6.70;2.70;;;;;;;;;;5075629;28;20674;-94
2022/04/25 09:08:24;;;;;;;8.73;3.37;;;;;;;;;;5075810;28;20192;-94
2022/04/25 09:12:09;;;;;;;6.47;3.00;;;;;;;;;;5075555;28;20319;-94
2022/04/25 09:13:39;;;;;;;14.20;3.03;;;;;;;;;;5075233;28;20285;-94
2022/04/25 09:16:15;;;;;;;4.37;2.97;;;;;;;;;;5075262;28;20225;-94
2022/04/25 09:18:48;;;;;;;9.10;2.60;;;;;;;;;;5075670;28;20284;-94
2022/04/25 09:21:21;;;;;;;8.87;3.27;;;;;;;;;;5075476;28;20280;-94
2022/04/25 09:23:55;;;;;;;8.00;3.40;;;;;;;;;;5075497;28;20217;-94
2022/04/25 09:26:27;;;;;;;7.87;3.60;;;;;;;;;;5075198;28;20225;-95
2022/04/25 09:28:59;;;;;;;7.73;3.33;;;;;;;;;;5075298;28;20189;-93
2022/04/25 09:31:31;;;;;;;12.23;8.27;;;;;;;;;;5075356;28;20200;-95
2022/04/25 09:34:15;;;;;;;9.70;4.40;;;;;;;;;;5075474;28;20576;-94
2022/04/25 09:36:49;;;;;;;7.73;3.50;;;;;;;;;;5055358;28;20231;-95
2022/04/25 09:39:30;;;;;;;9.63;3.03;;;;;;;;;;5055112;28;20298;-95
2022/04/25 09:42:01;;;;;;;11.00;3.53;;;;;;;;;;5053903;28;20284;-95
2022/04/25 09:44:30;;;;;;;6.20;2.97;;;;;;;;;;5054716;28;20194;-94
2022/04/25 09:46:59;;;;;;;9.47;3.40;;;;;;;;;;5056040;28;20637;-96
2022/04/25 09:49:38;;;;;;;6.87;3.43;;;;;;;;;;5055201;28;20218;-94
2022/04/25 09:52:09;;;;;;;13.17;3.87;;;;;;;;;;5055020;28;20627;-95
2022/04/25 09:54:37;;;;;;;10.37;3.27;;;;;;;;;;5055244;28;20657;-95
2022/04/25 09:57:08;;;;;;;11.27;3.97;;;;;;;;;;5054575;28;20427;-95
2022/04/25 09:59:47;;;;;;;8.93;4.23;;;;;;;;;;5055919;28;20198;-96
2022/04/25 10:02:21;;;;;;;13.83;3.80;;;;;;;;;;5059471;28;20194;-96
2022/04/25 10:04:51;;;;;;;12.53;4.00;;;;;;;;;;5056797;28;20222;-95
2022/04/25 10:07:31;;;;;;;10.57;3.53;;;;;;;;;;5054846;28;20198;-95
2022/04/25 10:09:58;;;;;;;7.97;3.43;;;;;;;;;;5054667;28;20213;-95
2022/04/25 10:12:36;;;;;;;8.73;3.60;;;;;;;;;;5054627;28;20199;-94
2022/04/25 10:15:10;;;;;;;8.77;3.23;;;;;;;;;;5055019;28;20600;-94
2022/04/25 10:17:45;;;;;;;8.23;3.40;;;;;;;;;;5054769;28;20565;-94
2022/04/25 10:20:16;;;;;;;8.23;3.30;;;;;;;;;;5054159;28;20627;-95
2022/04/25 10:22:53;;;;;;;9.53;4.00;;;;;;;;;;5054223;28;20293;-95
2022/04/25 10:25:20;;;;;;;10.20;3.47;;;;;;;;;;5054040;28;20218;-95
2022/04/25 10:27:48;;;;;;;8.43;3.67;;;;;;;;;;5054070;28;20206;-95
2022/04/25 10:30:18;;;;;;;6.73;3.50;;;;;;;;;;5053971;28;20233;-95
2022/04/25 10:32:46;;;;;;;9.47;3.93;;;;;;;;;;5053952;28;20202;-94
2022/04/25 10:35:47;;;;;;;8.17;3.67;;;;;;;;;;5062647;28;20690;-95
2022/04/25 10:38:50;;;;;;;7.33;3.50;;;;;;;;;;5074057;28;20232;-96
2022/04/25 10:44:50;;;;;;;9.70;3.27;;;;;;;;;;4973572;28;20188;-96
2022/04/25 10:47:28;;;;;;;10.87;3.87;;;;;;;;;;4973655;28;20208;-96
2022/04/25 10:50:06;;;;;;;8.10;4.13;;;;;;;;;;4973611;28;20204;-95
2022/04/25 10:52:59;;;;;;;4.63;2.73;;;;;;;;;;4973408;28;20593;-96
2022/04/25 10:55:46;;;;;;;12.47;2.87;;;;;;;;;;4973406;28;20198;-96
2022/04/25 10:58:22;;;;;;;9.17;3.00;;;;;;;;;;4973341;28;20289;-96
2022/04/25 11:00:57;;;;;;;9.60;3.50;;;;;;;;;;4973465;28;20200;-96
2022/04/25 11:04:03;;;;;;;11.27;4.27;;;;;;;;;;4973424;28;20208;-95
2022/04/25 11:06:33;;;;;;;9.77;3.87;;;;;;;;;;4973194;28;20764;-95
2022/04/25 11:09:04;;;;;;;15.93;3.40;;;;;;;;;;4973151;28;20580;-96
2022/04/25 11:11:47;;;;;;;8.80;3.70;;;;;;;;;;4995524;28;20208;-92
2022/04/25 11:14:16;;;;;;;6.47;3.27;;;;;;;;;;5073267;28;20200;-96
2022/04/25 11:16:44;;;;;;;8.40;3.90;;;;;;;;;;5073139;28;20200;-96
2022/04/25 11:19:22;;;;;;;10.47;3.70;;;;;;;;;;5073342;28;20276;-96
2022/04/25 11:21:55;;;;;;;9.67;3.13;;;;;;;;;;5073441;28;20223;-96
2022/04/25 11:24:39;;;;;;;10.70;3.70;;;;;;;;;;5073710;28;20235;-96
2022/04/25 11:27:14;;;;;;;9.97;3.37;;;;;;;;;;5072870;28;20227;-96
2022/04/25 11:29:45;;;;;;;11.73;3.53;;;;;;;;;;5073241;28;20193;-96
2022/04/25 11:32:27;;;;;;;11.37;4.27;;;;;;;;;;5073158;28;20204;-96
2022/04/25 11:35:02;;;;;;;9.27;3.27;;;;;;;;;;5073711;28;20251;-95
2022/04/25 11:37:59;;;;;;;12.63;3.50;;;;;;;;;;5073754;28;20203;-96
2022/04/25 11:40:26;;;;;;;6.40;3.57;;;;;;;;;;5074407;28;20204;-96
2022/04/25 11:42:54;;;;;;;13.40;4.10;;;;;;;;;;5073673;28;20181;-96
2022/04/25 11:45:22;;;;;;;8.17;3.63;;;;;;;;;;5079540;28;20264;-96
2022/04/25 11:47:49;;;;;;;13.53;3.97;;;;;;;;;;5080986;28;20197;-95
2022/04/25 11:50:21;;;;;;;6.77;3.33;;;;;;;;;;5077810;28;20224;-95
2022/04/25 11:52:59;;;;;;;13.63;4.73;;;;;;;;;;5080479;28;20580;-96
2022/04/25 11:55:38;;;;;;;15.47;3.60;;;;;;;;;;5073472;28;20681;-96
2022/04/25 11:58:06;;;;;;;10.90;4.53;;;;;;;;;;5074007;28;20197;-96
2022/04/25 12:00:34;;;;;;;18.17;4.20;;;;;;;;;;5073364;28;20205;-96
2022/04/25 12:03:02;;;;;;;15.17;4.00;;;;;;;;;;5072831;28;20270;-95
2022/04/25 12:05:31;;;;;;;10.90;3.93;;;;;;;;;;5076561;28;20202;-95
2022/04/25 12:16:47;;;;;;;7.73;3.70;;;;;;;;;;5077537;28;20176;-94
2022/04/25 12:19:21;;;;;;;8.43;4.27;;;;;;;;;;5077095;28;20209;-94
2022/04/25 12:21:48;;;;;;;12.87;4.43;;;;;;;;;;5076583;28;20281;-95
2022/04/25 12:24:22;;;;;;;12.13;4.20;;;;;;;;;;5076900;28;20581;-95
2022/04/25 12:26:49;;;;;;;8.97;3.83;;;;;;;;;;5076444;28;20225;-94
2022/04/25 12:29:19;;;;;;;10.43;3.80;;;;;;;;;;5076765;28;20211;-94
2022/04/25 12:31:47;;;;;;;13.90;3.70;;;;;;;;;;5076829;28;20201;-95
2022/04/25 12:34:16;;;;;;;10.63;3.70;;;;;;;;;;5076446;28;20205;-95
2022/04/25 12:36:54;;;;;;;8.20;4.23;;;;;;;;;;5078783;28;20606;-95
2022/04/25 12:39:27;;;;;;;10.80;5.00;;;;;;;;;;5077422;28;21012;-94
2022/04/25 12:41:58;;;;;;;9.03;3.30;;;;;;;;;;5078396;28;20575;-94
2022/04/25 12:44:26;;;;;;;16.10;3.93;;;;;;;;;;5079780;28;20223;-95
2022/04/25 12:47:05;;;;;;;9.73;4.37;;;;;;;;;;5079712;28;20247;-94
2022/04/25 12:49:36;;;;;;;7.27;3.57;;;;;;;;;;5078119;28;20610;-94
2022/04/25 12:52:05;;;;;;;9.47;4.23;;;;;;;;;;5076315;28;20712;-94
2022/04/25 12:54:36;;;;;;;9.70;3.50;;;;;;;;;;5076341;28;20197;-94
2022/04/25 12:57:34;;;;;;;15.00;4.30;;;;;;;;;;5079410;28;20202;-94
2022/04/25 13:00:02;;;;;;;12.90;3.97;;;;;;;;;;5079116;28;20197;-95
2022/04/25 13:02:35;;;;;;;10.73;3.97;;;;;;;;;;5078243;28;20224;-95
2022/04/25 13:05:05;;;;;;;7.00;3.63;;;;;;;;;;5080141;28;20201;-95
2022/04/25 13:07:33;;;;;;;15.57;3.37;;;;;;;;;;5080183;28;20282;-95
2022/04/25 13:10:03;;;;;;;11.70;3.93;;;;;;;;;;5078589;28;20193;-95
2022/04/25 13:12:39;;;;;;;4.17;2.90;;;;;;;;;;5082413;28;20204;-95
2022/04/25 13:15:10;;;;;;;11.63;4.07;;;;;;;;;;5081977;28;20215;-95
2022/04/25 13:17:38;;;;;;;10.83;3.70;;;;;;;;;;5080237;28;20643;-96
2022/04/25 13:20:06;;;;;;;13.20;3.87;;;;;;;;;;5078720;28;20197;-96
2022/04/25 13:22:34;;;;;;;9.53;3.30;;;;;;;;;;5078462;28;20197;-95
2022/04/25 13:25:03;;;;;;;7.80;3.53;;;;;;;;;;5076535;28;20200;-95
2022/04/25 13:27:36;;;;;;;12.53;3.73;;;;;;;;;;5078817;28;20308;-96
2022/04/25 13:30:05;;;;;;;9.40;3.37;;;;;;;;;;5079358;28;20757;-96
2022/04/25 13:32:32;;;;;;;10.33;4.07;;;;;;;;;;5078678;28;20194;-96
2022/04/25 13:35:00;;;;;;;15.00;4.67;;;;;;;;;;5078062;28;20295;-95
2022/04/25 13:37:40;;;;;;;20.20;4.67;;;;;;;;;;5076235;28;20284;-96
2022/04/25 13:40:09;;;;;;;12.37;4.10;;;;;;;;;;5075912;28;20204;-96
2022/04/25 13:42:38;;;;;;;11.67;3.67;;;;;;;;;;5075513;28;20276;-96
2022/04/25 13:45:08;;;;;;;11.83;3.80;;;;;;;;;;5075517;28;20201;-96
2022/04/25 13:47:36;;;;;;;9.77;4.03;;;;;;;;;;5075554;28;20223;-95
2022/04/25 13:50:09;;;;;;;16.00;4.20;;;;;;;;;;5075485;28;20664;-95
2022/04/25 13:52:45;;;;;;;8.60;3.37;;;;;;;;;;5074990;28;20276;-96
2022/04/25 13:55:21;;;;;;;11.87;4.20;;;;;;;;;;5075589;28;20192;-95
2022/04/25 13:57:48;;;;;;;9.37;4.13;;;;;;;;;;5075380;28;20218;-96
2022/04/25 14:00:18;;;;;;;15.63;4.30;;;;;;;;;;5075360;28;20251;-95
2022/04/25 14:05:29;;;;;;;10.53;3.87;;;;;;;;;;5071977;28;20193;-96
2022/04/25 14:07:56;;;;;;;7.23;2.93;;;;;;;;;;5074863;28;20240;-95
2022/04/25 14:10:27;;;;;;;13.10;3.80;;;;;;;;;;5075412;28;20255;-96
2022/04/25 14:12:55;;;;;;;10.53;4.30;;;;;;;;;;5076069;28;20223;-96
2022/04/25 14:15:28;;;;;;;10.90;4.30;;;;;;;;;;5074915;28;20213;-96
2022/04/25 14:17:56;;;;;;;13.63;4.90;;;;;;;;;;5075377;28;20221;-96
2022/04/25 14:20:26;;;;;;;9.53;3.10;;;;;;;;;;5080986;28;20221;-95
2022/04/25 14:23:00;;;;;;;8.63;3.13;;;;;;;;;;5075267;28;20280;-95
2022/04/25 14:25:32;;;;;;;8.10;3.43;;;;;;;;;;5076302;28;20204;-95
2022/04/25 14:28:01;;;;;;;9.70;3.83;;;;;;;;;;5078813;28;20225;-95
2022/04/25 14:30:29;;;;;;;15.50;5.20;;;;;;;;;;5074902;28;20200;-96
2022/04/25 14:32:57;;;;;;;14.00;4.70;;;;;;;;;;5075024;28;20201;-96
2022/04/25 14:35:25;;;;;;;11.53;3.70;;;;;;;;;;5076760;28;20311;-95
2022/04/25 14:37:52;;;;;;;10.37;3.83;;;;;;;;;;5076266;28;20203;-96
2022/04/25 14:40:26;;;;;;;9.90;4.10;;;;;;;;;;5075598;28;20193;-95
2022/04/25 14:42:55;;;;;;;10.23;4.10;;;;;;;;;;5078664;28;20207;-95
2022/04/25 14:45:28;;;;;;;10.07;3.40;;;;;;;;;;5078049;28;20203;-95
2022/04/25 14:47:56;;;;;;;16.97;4.60;;;;;;;;;;5077599;28;20720;-95
2022/04/25 14:55:58;;;;;;;22.03;5.17;;;;;;;;;;5082046;28;20574;-95
2022/04/25 14:58:39;;;;;;;12.33;3.57;;;;;;;;;;5077062;28;20217;-96
2022/04/25 15:01:16;;;;;;;14.73;4.23;;;;;;;;;;5077559;28;20665;-96
2022/04/25 15:03:44;;;;;;;12.07;4.20;;;;;;;;;;5077043;28;20295;-96
2022/04/25 15:06:11;;;;;;;15.07;4.57;;;;;;;;;;5075640;28;20201;-95
2022/04/25 15:08:41;;;;;;;15.60;3.93;;;;;;;;;;5078583;28;20197;-95
2022/04/25 15:11:15;;;;;;;12.17;3.53;;;;;;;;;;5078396;28;20205;-94
2022/04/25 15:13:43;;;;;;;12.97;4.67;;;;;;;;;;5075170;28;20201;-95
2022/04/25 15:16:20;;;;;;;14.53;4.83;;;;;;;;;;5077137;28;20189;-95
2022/04/25 15:18:50;;;;;;;18.37;4.70;;;;;;;;;;5075902;28;20205;-95
2022/04/25 15:21:20;;;;;;;13.03;4.43;;;;;;;;;;5075170;28;20618;-94
2022/04/25 15:23:48;;;;;;;14.47;4.87;;;;;;;;;;5073977;28;20200;-94
2022/04/25 15:26:18;;;;;;;13.87;4.47;;;;;;;;;;5073873;28;20270;-95
2022/04/25 15:28:47;;;;;;;11.73;4.67;;;;;;;;;;5075563;28;20668;-95
2022/04/25 15:31:15;;;;;;;13.30;4.13;;;;;;;;;;5075011;28;20566;-96
2022/04/25 15:33:50;;;;;;;13.53;4.27;;;;;;;;;;5078604;28;20228;-96
2022/04/25 15:36:20;;;;;;;20.93;4.10;;;;;;;;;;5078651;28;20295;-96
2022/04/25 15:38:48;;;;;;;14.43;4.20;;;;;;;;;;5075544;28;20223;-96
2022/04/25 15:41:18;;;;;;;18.13;5.17;;;;;;;;;;5074956;28;20196;-96
2022/04/25 15:43:50;;;;;;;17.37;5.33;;;;;;;;;;5074535;28;20288;-96
2022/04/25 15:46:18;;;;;;;19.23;4.40;;;;;;;;;;5074976;28;20193;-96
2022/04/25 15:48:46;;;;;;;15.50;5.47;;;;;;;;;;5074147;28;20274;-96
2022/04/25 15:51:13;;;;;;;11.83;4.17;;;;;;;;;;5074126;28;20200;-96
2022/04/25 15:59:16;;;;;;;19.50;5.50;;;;;;;;;;5073827;28;20185;-96